sensor_id;sensor_type;location;lat;lon;timestamp;pressure;altitude;pressure_sealevel;temperature;humidity
57442;BME280;43284;47.042;15.498;2023-08-12T00:02:11;97820.97;;;13.06;100.00
57442;BME280;43284;47.042;15.498;2023-08-12T00:04:37;97828.16;;;13.19;100.00
57442;BME280;43284;47.042;15.498;2023-08-12T00:07:02;97829.31;;;13.14;100.00
57442;BME280;43284;47.042;15.498;2023-08-12T00:09:28;97821.09;;;13.03;100.00
57442;BME280;43284;47.042;15.498;2023-08-12T00:11:53;97823.94;;;12.98;100.00
57442;BME280;43284;47.042;15.498;2023-08-12T00:14:19;97820.69;;;12.93;100.00
57442;BME280;43284;47.042;15.498;2023-08-12T00:16:45;97824.16;;;12.93;100.00
57442;BME280;43284;47.042;15.498;2023-08-12T00:19:10;97815.75;;;12.87;100.00
57442;BME280;43284;47.042;15.498;2023-08-12T00:21:36;97823.06;;;12.80;100.00
57442;BME280;43284;47.042;15.498;2023-08-12T00:24:01;97819.72;;;12.76;100.00
57442;BME280;43284;47.042;15.498;2023-08-12T00:26:27;97814.47;;;12.76;100.00
57442;BME280;43284;47.042;15.498;2023-08-12T00:28:53;97816.53;;;12.89;100.00
57442;BME280;43284;47.042;15.498;2023-08-12T00:31:18;97805.97;;;12.90;100.00
57442;BME280;43284;47.042;15.498;2023-08-12T00:33:44;97800.84;;;12.87;100.00
57442;BME280;43284;47.042;15.498;2023-08-12T00:36:09;97794.47;;;12.93;100.00
57442;BME280;43284;47.042;15.498;2023-08-12T00:38:35;97795.06;;;12.98;100.00
57442;BME280;43284;47.042;15.498;2023-08-12T00:41:00;97796.31;;;12.91;100.00
57442;BME280;43284;47.042;15.498;2023-08-12T00:43:26;97801.28;;;12.78;100.00
57442;BME280;43284;47.042;15.498;2023-08-12T00:45:52;97805.47;;;12.63;100.00
57442;BME280;43284;47.042;15.498;2023-08-12T00:48:18;97797.81;;;12.58;100.00
57442;BME280;43284;47.042;15.498;2023-08-12T00:50:44;97799.53;;;12.60;100.00
57442;BME280;43284;47.042;15.498;2023-08-12T00:53:11;97796.91;;;12.60;100.00
57442;BME280;43284;47.042;15.498;2023-08-12T00:55:38;97788.81;;;12.64;100.00
57442;BME280;43284;47.042;15.498;2023-08-12T00:58:04;97782.56;;;12.67;100.00
57442;BME280;43284;47.042;15.498;2023-08-12T01:00:31;97782.78;;;12.62;100.00
57442;BME280;43284;47.042;15.498;2023-08-12T01:02:57;97786.75;;;12.52;100.00
57442;BME280;43284;47.042;15.498;2023-08-12T01:05:23;97786.75;;;12.52;100.00
57442;BME280;43284;47.042;15.498;2023-08-12T01:07:49;97784.19;;;12.50;100.00
57442;BME280;43284;47.042;15.498;2023-08-12T01:10:15;97788.66;;;12.48;100.00
57442;BME280;43284;47.042;15.498;2023-08-12T01:12:50;97782.00;;;12.41;100.00
57442;BME280;43284;47.042;15.498;2023-08-12T01:15:21;97782.50;;;12.49;100.00
57442;BME280;43284;47.042;15.498;2023-08-12T01:17:49;97772.59;;;12.56;100.00
57442;BME280;43284;47.042;15.498;2023-08-12T01:20:20;97776.28;;;12.52;100.00
57442;BME280;43284;47.042;15.498;2023-08-12T01:22:56;97770.88;;;12.55;100.00
57442;BME280;43284;47.042;15.498;2023-08-12T01:25:24;97776.28;;;12.52;100.00
57442;BME280;43284;47.042;15.498;2023-08-12T01:27:49;97782.06;;;12.58;100.00
57442;BME280;43284;47.042;15.498;2023-08-12T01:30:16;97777.47;;;12.45;100.00
57442;BME280;43284;47.042;15.498;2023-08-12T01:33:13;97771.72;;;12.36;100.00
57442;BME280;43284;47.042;15.498;2023-08-12T01:35:47;97775.41;;;12.32;100.00
57442;BME280;43284;47.042;15.498;2023-08-12T01:38:15;97773.84;;;12.28;100.00
57442;BME280;43284;47.042;15.498;2023-08-12T01:40:41;97774.13;;;12.22;100.00
57442;BME280;43284;47.042;15.498;2023-08-12T01:43:08;97769.75;;;12.23;100.00
57442;BME280;43284;47.042;15.498;2023-08-12T01:45:34;97773.84;;;12.28;100.00
57442;BME280;43284;47.042;15.498;2023-08-12T01:48:00;97776.25;;;12.33;100.00
57442;BME280;43284;47.042;15.498;2023-08-12T01:50:26;97771.50;;;12.22;100.00
57442;BME280;43284;47.042;15.498;2023-08-12T01:52:51;97777.03;;;12.16;100.00
57442;BME280;43284;47.042;15.498;2023-08-12T01:55:17;97781.00;;;12.06;100.00
57442;BME280;43284;47.042;15.498;2023-08-12T01:57:42;97782.88;;;12.02;100.00
57442;BME280;43284;47.042;15.498;2023-08-12T02:00:08;97779.47;;;12.00;100.00
57442;BME280;43284;47.042;15.498;2023-08-12T02:02:34;97786.28;;;12.04;100.00
57442;BME280;43284;47.042;15.498;2023-08-12T02:05:00;97790.22;;;12.14;100.00
57442;BME280;43284;47.042;15.498;2023-08-12T02:07:25;97788.72;;;12.28;100.00
57442;BME280;43284;47.042;15.498;2023-08-12T02:09:51;97787.53;;;12.16;100.00
57442;BME280;43284;47.042;15.498;2023-08-12T02:12:16;97788.06;;;12.04;100.00
57442;BME280;43284;47.042;15.498;2023-08-12T02:14:42;97787.44;;;11.99;100.00
57442;BME280;43284;47.042;15.498;2023-08-12T02:17:07;97783.75;;;12.03;100.00
57442;BME280;43284;47.042;15.498;2023-08-12T02:19:33;97781.31;;;11.98;100.00
57442;BME280;43284;47.042;15.498;2023-08-12T02:22:01;97783.28;;;11.93;100.00
57442;BME280;43284;47.042;15.498;2023-08-12T02:24:27;97784.41;;;11.87;100.00
57442;BME280;43284;47.042;15.498;2023-08-12T02:26:53;97776.66;;;11.84;100.00
57442;BME280;43284;47.042;15.498;2023-08-12T02:29:18;97778.28;;;11.87;100.00
57442;BME280;43284;47.042;15.498;2023-08-12T02:31:44;97777.44;;;12.07;100.00
57442;BME280;43284;47.042;15.498;2023-08-12T02:34:09;97779.88;;;11.91;100.00
57442;BME280;43284;47.042;15.498;2023-08-12T02:36:35;97787.34;;;11.80;100.00
57442;BME280;43284;47.042;15.498;2023-08-12T02:39:01;97789.22;;;11.76;100.00
57442;BME280;43284;47.042;15.498;2023-08-12T02:41:26;97791.25;;;11.69;100.00
57442;BME280;43284;47.042;15.498;2023-08-12T02:43:52;97792.19;;;11.68;100.00
57442;BME280;43284;47.042;15.498;2023-08-12T02:46:17;97787.84;;;11.67;100.00
57442;BME280;43284;47.042;15.498;2023-08-12T02:48:45;97786.97;;;11.68;100.00
57442;BME280;43284;47.042;15.498;2023-08-12T02:51:13;97775.09;;;11.80;100.00
57442;BME280;43284;47.042;15.498;2023-08-12T02:53:38;97779.28;;;11.84;100.00
57442;BME280;43284;47.042;15.498;2023-08-12T02:56:04;97786.75;;;11.73;100.00
57442;BME280;43284;47.042;15.498;2023-08-12T02:58:29;97779.94;;;11.69;100.00
57442;BME280;43284;47.042;15.498;2023-08-12T03:00:55;97787.94;;;11.66;100.00
57442;BME280;43284;47.042;15.498;2023-08-12T03:03:20;97773.34;;;11.60;100.00
57442;BME280;43284;47.042;15.498;2023-08-12T03:05:49;97775.06;;;11.61;100.00
57442;BME280;43284;47.042;15.498;2023-08-12T03:08:15;97772.53;;;11.58;100.00
57442;BME280;43284;47.042;15.498;2023-08-12T03:10:41;97776.88;;;11.59;100.00
57442;BME280;43284;47.042;15.498;2023-08-12T03:13:07;97778.78;;;11.55;100.00
57442;BME280;43284;47.042;15.498;2023-08-12T03:15:33;97775.91;;;11.62;100.00
57442;BME280;43284;47.042;15.498;2023-08-12T03:17:58;97777.13;;;11.53;100.00
57442;BME280;43284;47.042;15.498;2023-08-12T03:20:24;97778.19;;;11.49;100.00
57442;BME280;43284;47.042;15.498;2023-08-12T03:22:49;97779.03;;;11.49;100.00
57442;BME280;43284;47.042;15.498;2023-08-12T03:25:15;97784.66;;;11.40;100.00
57442;BME280;43284;47.042;15.498;2023-08-12T03:27:41;97780.34;;;11.39;100.00
57442;BME280;43284;47.042;15.498;2023-08-12T03:30:07;97780.34;;;11.39;100.00
57442;BME280;43284;47.042;15.498;2023-08-12T03:32:33;97782.81;;;11.42;100.00
57442;BME280;43284;47.042;15.498;2023-08-12T03:34:58;97777.72;;;11.39;100.00
57442;BME280;43284;47.042;15.498;2023-08-12T03:37:25;97784.91;;;11.34;100.00
57442;BME280;43284;47.042;15.498;2023-08-12T03:39:50;97784.97;;;11.32;100.00
57442;BME280;43284;47.042;15.498;2023-08-12T03:42:16;97781.44;;;11.33;100.00
57442;BME280;43284;47.042;15.498;2023-08-12T03:44:43;97787.47;;;11.36;100.00
57442;BME280;43284;47.042;15.498;2023-08-12T03:47:08;97789.16;;;11.37;100.00
57442;BME280;43284;47.042;15.498;2023-08-12T03:49:34;97787.91;;;11.45;100.00
57442;BME280;43284;47.042;15.498;2023-08-12T03:51:59;97784.78;;;11.37;100.00
57442;BME280;43284;47.042;15.498;2023-08-12T03:54:25;97783.28;;;11.31;100.00
57442;BME280;43284;47.042;15.498;2023-08-12T03:56:50;97778.69;;;11.37;100.00
57442;BME280;43284;47.042;15.498;2023-08-12T03:59:16;97780.72;;;11.30;100.00
57442;BME280;43284;47.042;15.498;2023-08-12T04:01:41;97781.69;;;11.27;100.00
57442;BME280;43284;47.042;15.498;2023-08-12T04:04:07;97782.53;;;11.28;100.00
57442;BME280;43284;47.042;15.498;2023-08-12T04:06:32;97784.44;;;11.24;100.00
57442;BME280;43284;47.042;15.498;2023-08-12T04:08:58;97778.47;;;11.21;100.00
57442;BME280;43284;47.042;15.498;2023-08-12T04:11:23;97774.16;;;11.20;100.00
57442;BME280;43284;47.042;15.498;2023-08-12T04:13:49;97783.97;;;11.14;100.00
57442;BME280;43284;47.042;15.498;2023-08-12T04:16:14;97784.09;;;11.11;100.00
57442;BME280;43284;47.042;15.498;2023-08-12T04:18:40;97780.56;;;11.12;100.00
57442;BME280;43284;47.042;15.498;2023-08-12T04:21:05;97788.59;;;11.08;100.00
57442;BME280;43284;47.042;15.498;2023-08-12T04:23:31;97792.13;;;11.07;100.00
57442;BME280;43284;47.042;15.498;2023-08-12T04:25:56;97790.91;;;11.16;100.00
57442;BME280;43284;47.042;15.498;2023-08-12T04:28:22;97789.59;;;11.26;100.00
57442;BME280;43284;47.042;15.498;2023-08-12T04:30:49;97798.50;;;11.22;100.00
57442;BME280;43284;47.042;15.498;2023-08-12T04:33:18;97796.09;;;11.38;100.00
57442;BME280;43284;47.042;15.498;2023-08-12T04:35:45;97790.03;;;11.37;100.00
57442;BME280;43284;47.042;15.498;2023-08-12T04:38:11;97793.28;;;11.42;100.00
57442;BME280;43284;47.042;15.498;2023-08-12T04:40:39;97797.25;;;11.52;100.00
57442;BME280;43284;47.042;15.498;2023-08-12T04:43:05;97797.16;;;11.54;100.00
57442;BME280;43284;47.042;15.498;2023-08-12T04:45:31;97801.94;;;11.65;100.00
57442;BME280;43284;47.042;15.498;2023-08-12T04:47:57;97794.75;;;11.70;100.00
57442;BME280;43284;47.042;15.498;2023-08-12T04:50:23;97787.34;;;11.80;100.00
57442;BME280;43284;47.042;15.498;2023-08-12T04:52:48;97787.41;;;11.78;100.00
57442;BME280;43284;47.042;15.498;2023-08-12T04:55:14;97794.47;;;11.76;100.00
57442;BME280;43284;47.042;15.498;2023-08-12T04:57:40;97783.63;;;11.85;100.00
57442;BME280;43284;47.042;15.498;2023-08-12T05:00:06;97788.97;;;11.82;100.00
57442;BME280;43284;47.042;15.498;2023-08-12T05:02:35;97784.66;;;11.81;100.00
57442;BME280;43284;47.042;15.498;2023-08-12T05:05:00;97780.22;;;11.83;100.00
57442;BME280;43284;47.042;15.498;2023-08-12T05:07:26;97779.22;;;11.86;100.00
57442;BME280;43284;47.042;15.498;2023-08-12T05:09:52;97782.56;;;11.89;100.00
57442;BME280;43284;47.042;15.498;2023-08-12T05:12:17;97789.47;;;11.92;100.00
57442;BME280;43284;47.042;15.498;2023-08-12T05:14:43;97785.44;;;12.04;100.00
57442;BME280;43284;47.042;15.498;2023-08-12T05:17:08;97776.75;;;12.03;100.00
57442;BME280;43284;47.042;15.498;2023-08-12T05:19:34;97785.22;;;12.08;100.00
57442;BME280;43284;47.042;15.498;2023-08-12T05:21:59;97789.28;;;12.15;100.00
57442;BME280;43284;47.042;15.498;2023-08-12T05:24:25;97785.59;;;12.20;100.00
57442;BME280;43284;47.042;15.498;2023-08-12T05:26:50;97790.78;;;12.21;100.00
57442;BME280;43284;47.042;15.498;2023-08-12T05:29:16;97788.00;;;12.24;100.00
57442;BME280;43284;47.042;15.498;2023-08-12T05:31:41;97789.66;;;12.27;100.00
57442;BME280;43284;47.042;15.498;2023-08-12T05:34:07;97788.53;;;12.32;100.00
57442;BME280;43284;47.042;15.498;2023-08-12T05:36:32;97790.09;;;12.36;100.00
57442;BME280;43284;47.042;15.498;2023-08-12T05:38:58;97780.94;;;12.45;100.00
57442;BME280;43284;47.042;15.498;2023-08-12T05:41:24;97779.03;;;12.49;100.00
57442;BME280;43284;47.042;15.498;2023-08-12T05:43:49;97783.00;;;12.57;100.00
57442;BME280;43284;47.042;15.498;2023-08-12T05:46:15;97787.94;;;12.64;100.00
57442;BME280;43284;47.042;15.498;2023-08-12T05:48:40;97783.91;;;12.75;100.00
57442;BME280;43284;47.042;15.498;2023-08-12T05:51:06;97778.50;;;12.78;100.00
57442;BME280;43284;47.042;15.498;2023-08-12T05:53:31;97782.25;;;12.92;100.00
57442;BME280;43284;47.042;15.498;2023-08-12T05:55:58;97785.22;;;13.03;100.00
57442;BME280;43284;47.042;15.498;2023-08-12T05:58:24;97785.63;;;13.13;100.00
57442;BME280;43284;47.042;15.498;2023-08-12T06:00:49;97781.53;;;13.25;100.00
57442;BME280;43284;47.042;15.498;2023-08-12T06:03:15;97781.19;;;13.32;100.00
57442;BME280;43284;47.042;15.498;2023-08-12T06:05:41;97779.97;;;13.39;100.00
57442;BME280;43284;47.042;15.498;2023-08-12T06:08:06;97775.25;;;13.46;100.00
57442;BME280;43284;47.042;15.498;2023-08-12T06:10:33;97780.72;;;13.59;100.00
57442;BME280;43284;47.042;15.498;2023-08-12T06:12:59;97778.63;;;13.66;100.00
57442;BME280;43284;47.042;15.498;2023-08-12T06:15:24;97774.63;;;13.76;100.00
57442;BME280;43284;47.042;15.498;2023-08-12T06:17:50;97780.41;;;13.83;100.00
57442;BME280;43284;47.042;15.498;2023-08-12T06:20:15;97779.75;;;13.95;100.00
57442;BME280;43284;47.042;15.498;2023-08-12T06:22:41;97771.31;;;14.06;100.00
57442;BME280;43284;47.042;15.498;2023-08-12T06:25:06;97766.00;;;14.23;100.00
57442;BME280;43284;47.042;15.498;2023-08-12T06:27:32;97766.38;;;14.33;100.00
57442;BME280;43284;47.042;15.498;2023-08-12T06:29:57;97762.97;;;14.47;100.00
57442;BME280;43284;47.042;15.498;2023-08-12T06:32:23;97766.41;;;14.65;100.00
57442;BME280;43284;47.042;15.498;2023-08-12T06:34:48;97775.81;;;14.84;100.00
57442;BME280;43284;47.042;15.498;2023-08-12T06:37:14;97778.13;;;15.07;100.00
57442;BME280;43284;47.042;15.498;2023-08-12T06:39:39;97770.72;;;15.13;100.00
57442;BME280;43284;47.042;15.498;2023-08-12T06:42:05;97774.22;;;15.28;100.00
57442;BME280;43284;47.042;15.498;2023-08-12T06:44:30;97770.63;;;15.45;100.00
57442;BME280;43284;47.042;15.498;2023-08-12T06:46:56;97776.31;;;15.53;100.00
57442;BME280;43284;47.042;15.498;2023-08-12T06:49:22;97771.13;;;15.52;100.00
57442;BME280;43284;47.042;15.498;2023-08-12T06:51:47;97763.81;;;15.57;100.00
57442;BME280;43284;47.042;15.498;2023-08-12T06:54:12;97770.56;;;15.61;100.00
57442;BME280;43284;47.042;15.498;2023-08-12T06:56:38;97762.66;;;15.77;100.00
57442;BME280;43284;47.042;15.498;2023-08-12T06:59:04;97753.50;;;15.82;100.00
57442;BME280;43284;47.042;15.498;2023-08-12T07:01:29;97762.47;;;15.94;100.00
57442;BME280;43284;47.042;15.498;2023-08-12T07:03:55;97767.84;;;16.07;100.00
57442;BME280;43284;47.042;15.498;2023-08-12T07:06:21;97770.56;;;16.20;100.00
57442;BME280;43284;47.042;15.498;2023-08-12T07:08:47;97770.19;;;16.40;100.00
57442;BME280;43284;47.042;15.498;2023-08-12T07:11:12;97763.78;;;16.44;98.59
57442;BME280;43284;47.042;15.498;2023-08-12T07:13:38;97761.50;;;16.53;98.01
57442;BME280;43284;47.042;15.498;2023-08-12T07:16:03;97757.34;;;16.63;96.41
57442;BME280;43284;47.042;15.498;2023-08-12T07:18:29;97760.63;;;16.66;95.51
57442;BME280;43284;47.042;15.498;2023-08-12T07:20:54;97760.34;;;16.71;96.57
57442;BME280;43284;47.042;15.498;2023-08-12T07:23:20;97752.88;;;16.78;97.45
57442;BME280;43284;47.042;15.498;2023-08-12T07:25:48;97753.44;;;16.83;95.71
57442;BME280;43284;47.042;15.498;2023-08-12T07:28:14;97750.31;;;16.91;95.94
57442;BME280;43284;47.042;15.498;2023-08-12T07:30:39;97748.00;;;16.99;94.66
57442;BME280;43284;47.042;15.498;2023-08-12T07:33:05;97744.03;;;17.06;95.24
57442;BME280;43284;47.042;15.498;2023-08-12T07:35:30;97747.66;;;17.18;95.18
57442;BME280;43284;47.042;15.498;2023-08-12T07:37:56;97742.81;;;17.24;94.34
57442;BME280;43284;47.042;15.498;2023-08-12T07:40:21;97742.84;;;17.37;96.73
57442;BME280;43284;47.042;15.498;2023-08-12T07:42:47;97749.00;;;17.50;96.30
57442;BME280;43284;47.042;15.498;2023-08-12T07:45:13;97736.44;;;17.54;93.92
57442;BME280;43284;47.042;15.498;2023-08-12T07:47:38;97736.88;;;17.61;93.19
57442;BME280;43284;47.042;15.498;2023-08-12T07:50:04;97738.13;;;17.68;93.76
57442;BME280;43284;47.042;15.498;2023-08-12T07:52:30;97733.63;;;17.83;93.24
57442;BME280;43284;47.042;15.498;2023-08-12T07:54:56;97726.28;;;18.25;87.37
57442;BME280;43284;47.042;15.498;2023-08-12T07:57:21;97719.31;;;18.37;88.80
57442;BME280;43284;47.042;15.498;2023-08-12T07:59:52;97719.72;;;18.30;89.06
57442;BME280;43284;47.042;15.498;2023-08-12T08:02:17;97717.59;;;18.36;91.42
57442;BME280;43284;47.042;15.498;2023-08-12T08:04:43;97716.94;;;18.45;88.90
57442;BME280;43284;47.042;15.498;2023-08-12T08:07:08;97712.28;;;18.48;88.06
57442;BME280;43284;47.042;15.498;2023-08-12T08:09:34;97711.59;;;18.58;84.64
57442;BME280;43284;47.042;15.498;2023-08-12T08:12:00;97706.47;;;18.80;78.89
57442;BME280;43284;47.042;15.498;2023-08-12T08:14:26;97715.13;;;18.82;81.66
57442;BME280;43284;47.042;15.498;2023-08-12T08:16:53;97718.19;;;18.89;84.09
57442;BME280;43284;47.042;15.498;2023-08-12T08:19:18;97716.16;;;18.92;82.11
57442;BME280;43284;47.042;15.498;2023-08-12T08:21:44;97715.91;;;18.96;78.78
57442;BME280;43284;47.042;15.498;2023-08-12T08:24:10;97711.75;;;19.04;73.60
57442;BME280;43284;47.042;15.498;2023-08-12T08:26:38;97714.47;;;19.16;69.31
57442;BME280;43284;47.042;15.498;2023-08-12T08:29:04;97709.69;;;19.32;69.66
57442;BME280;43284;47.042;15.498;2023-08-12T08:31:29;97712.28;;;19.45;72.50
57442;BME280;43284;47.042;15.498;2023-08-12T08:33:55;97712.75;;;19.50;73.80
57442;BME280;43284;47.042;15.498;2023-08-12T08:36:20;97701.94;;;19.53;71.31
57442;BME280;43284;47.042;15.498;2023-08-12T08:38:46;97705.78;;;19.60;71.64
57442;BME280;43284;47.042;15.498;2023-08-12T08:41:12;97701.59;;;19.69;71.44
57442;BME280;43284;47.042;15.498;2023-08-12T08:43:40;97707.06;;;19.79;73.79
57442;BME280;43284;47.042;15.498;2023-08-12T08:46:07;97710.59;;;19.90;77.05
57442;BME280;43284;47.042;15.498;2023-08-12T08:48:33;97704.66;;;19.98;76.97
57442;BME280;43284;47.042;15.498;2023-08-12T08:51:00;97698.97;;;20.03;76.81
57442;BME280;43284;47.042;15.498;2023-08-12T08:53:26;97702.16;;;20.08;75.78
57442;BME280;43284;47.042;15.498;2023-08-12T08:55:52;97706.25;;;20.23;80.12
57442;BME280;43284;47.042;15.498;2023-08-12T08:58:19;97702.84;;;20.32;78.83
57442;BME280;43284;47.042;15.498;2023-08-12T09:00:44;97701.38;;;20.40;76.50
57442;BME280;43284;47.042;15.498;2023-08-12T09:03:10;97702.47;;;20.48;77.60
57442;BME280;43284;47.042;15.498;2023-08-12T09:05:38;97695.94;;;20.52;77.51
57442;BME280;43284;47.042;15.498;2023-08-12T09:08:06;97698.84;;;20.61;74.90
57442;BME280;43284;47.042;15.498;2023-08-12T09:10:36;97699.81;;;20.71;75.45
57442;BME280;43284;47.042;15.498;2023-08-12T09:13:06;97693.25;;;20.75;74.58
57442;BME280;43284;47.042;15.498;2023-08-12T09:15:34;97695.56;;;20.80;72.95
57442;BME280;43284;47.042;15.498;2023-08-12T09:17:59;97692.38;;;20.97;71.10
57442;BME280;43284;47.042;15.498;2023-08-12T09:20:25;97691.22;;;21.11;73.06
57442;BME280;43284;47.042;15.498;2023-08-12T09:22:57;97692.84;;;21.23;75.70
57442;BME280;43284;47.042;15.498;2023-08-12T09:25:24;97692.66;;;21.36;72.76
57442;BME280;43284;47.042;15.498;2023-08-12T09:27:49;97691.41;;;21.40;70.25
57442;BME280;43284;47.042;15.498;2023-08-12T09:30:15;97698.66;;;21.49;71.96
57442;BME280;43284;47.042;15.498;2023-08-12T09:32:40;97692.69;;;21.57;72.04
57442;BME280;43284;47.042;15.498;2023-08-12T09:35:15;97686.84;;;21.63;73.36
57442;BME280;43284;47.042;15.498;2023-08-12T09:37:41;97686.34;;;21.69;72.55
57442;BME280;43284;47.042;15.498;2023-08-12T09:40:07;97681.06;;;21.79;74.29
57442;BME280;43284;47.042;15.498;2023-08-12T09:42:33;97683.63;;;21.90;73.95
57442;BME280;43284;47.042;15.498;2023-08-12T09:44:59;97690.06;;;22.18;74.14
57442;BME280;43284;47.042;15.498;2023-08-12T09:47:25;97680.13;;;22.20;70.95
57442;BME280;43284;47.042;15.498;2023-08-12T09:49:52;97677.72;;;22.17;70.09
57442;BME280;43284;47.042;15.498;2023-08-12T09:52:17;97680.63;;;22.35;70.46
57442;BME280;43284;47.042;15.498;2023-08-12T09:54:44;97685.00;;;22.46;70.97
57442;BME280;43284;47.042;15.498;2023-08-12T09:57:10;97681.94;;;22.51;69.29
57442;BME280;43284;47.042;15.498;2023-08-12T09:59:38;97674.38;;;22.66;66.87
57442;BME280;43284;47.042;15.498;2023-08-12T10:02:06;97688.56;;;22.76;65.35
57442;BME280;43284;47.042;15.498;2023-08-12T10:04:42;97677.06;;;22.75;64.63
57442;BME280;43284;47.042;15.498;2023-08-12T10:07:10;97681.72;;;22.83;68.96
57442;BME280;43284;47.042;15.498;2023-08-12T10:09:36;97669.22;;;22.93;67.64
57442;BME280;43284;47.042;15.498;2023-08-12T10:12:03;97668.13;;;22.96;67.76
57442;BME280;43284;47.042;15.498;2023-08-12T10:14:29;97672.63;;;23.05;71.14
57442;BME280;43284;47.042;15.498;2023-08-12T10:16:55;97670.06;;;23.13;68.17
57442;BME280;43284;47.042;15.498;2023-08-12T10:19:21;97660.28;;;23.14;69.18
57442;BME280;43284;47.042;15.498;2023-08-12T10:21:54;97653.22;;;23.32;68.75
57442;BME280;43284;47.042;15.498;2023-08-12T10:24:23;97652.97;;;23.35;65.49
57442;BME280;43284;47.042;15.498;2023-08-12T10:26:50;97653.75;;;23.45;66.83
57442;BME280;43284;47.042;15.498;2023-08-12T10:29:16;97653.34;;;23.50;64.44
57442;BME280;43284;47.042;15.498;2023-08-12T10:31:42;97654.47;;;23.57;68.02
57442;BME280;43284;47.042;15.498;2023-08-12T10:34:21;97654.41;;;23.87;67.17
57442;BME280;43284;47.042;15.498;2023-08-12T10:36:48;97652.03;;;23.83;61.36
57442;BME280;43284;47.042;15.498;2023-08-12T10:39:13;97647.38;;;23.85;64.91
57442;BME280;43284;47.042;15.498;2023-08-12T10:41:50;97645.81;;;23.83;59.99
57442;BME280;43284;47.042;15.498;2023-08-12T10:44:16;97643.56;;;23.88;62.69
57442;BME280;43284;47.042;15.498;2023-08-12T10:46:49;97645.81;;;23.83;61.49
57442;BME280;43284;47.042;15.498;2023-08-12T10:49:15;97633.28;;;23.93;61.35
57442;BME280;43284;47.042;15.498;2023-08-12T10:59:47;97622.06;;;24.17;63.27
57442;BME280;43284;47.042;15.498;2023-08-12T11:04:56;97623.09;;;24.34;60.65
57442;BME280;43284;47.042;15.498;2023-08-12T11:07:29;97623.34;;;24.41;61.01
57442;BME280;43284;47.042;15.498;2023-08-12T11:09:59;97622.47;;;24.50;58.33
57442;BME280;43284;47.042;15.498;2023-08-12T11:12:35;97621.09;;;24.64;61.39
57442;BME280;43284;47.042;15.498;2023-08-12T11:15:03;97617.22;;;24.76;61.07
57442;BME280;43284;47.042;15.498;2023-08-12T11:17:36;97620.66;;;24.86;61.58
57442;BME280;43284;47.042;15.498;2023-08-12T11:20:05;97608.34;;;24.94;60.91
57442;BME280;43284;47.042;15.498;2023-08-12T11:22:33;97600.19;;;24.95;58.32
57442;BME280;43284;47.042;15.498;2023-08-12T11:25:02;97611.56;;;24.97;56.81
57442;BME280;43284;47.042;15.498;2023-08-12T11:27:28;97604.38;;;24.98;57.27
57442;BME280;43284;47.042;15.498;2023-08-12T11:29:53;97605.97;;;25.08;57.44
57442;BME280;43284;47.042;15.498;2023-08-12T11:32:19;97600.84;;;25.15;58.39
57442;BME280;43284;47.042;15.498;2023-08-12T11:34:45;97602.34;;;25.18;58.52
57442;BME280;43284;47.042;15.498;2023-08-12T11:37:10;97602.25;;;25.19;56.65
57442;BME280;43284;47.042;15.498;2023-08-12T11:39:37;97596.72;;;25.21;56.45
57442;BME280;43284;47.042;15.498;2023-08-12T11:42:02;97597.41;;;25.23;54.35
57442;BME280;43284;47.042;15.498;2023-08-12T11:44:28;97592.91;;;25.23;53.47
57442;BME280;43284;47.042;15.498;2023-08-12T11:46:54;97591.28;;;25.31;54.71
57442;BME280;43284;47.042;15.498;2023-08-12T11:49:19;97580.88;;;25.27;52.75
57442;BME280;43284;47.042;15.498;2023-08-12T11:51:47;97588.97;;;25.36;53.68
57442;BME280;43284;47.042;15.498;2023-08-12T11:54:14;97582.34;;;25.48;54.72
57442;BME280;43284;47.042;15.498;2023-08-12T11:56:40;97584.63;;;25.61;55.49
57442;BME280;43284;47.042;15.498;2023-08-12T11:59:06;97563.22;;;25.69;53.07
57442;BME280;43284;47.042;15.498;2023-08-12T12:01:32;97573.09;;;25.68;52.09
57442;BME280;43284;47.042;15.498;2023-08-12T12:04:00;97577.47;;;25.78;55.32
57442;BME280;43284;47.042;15.498;2023-08-12T12:06:38;97574.84;;;25.86;52.68
57442;BME280;43284;47.042;15.498;2023-08-12T12:09:05;97578.78;;;26.00;54.17
57442;BME280;43284;47.042;15.498;2023-08-12T12:11:32;97568.44;;;26.05;51.55
57442;BME280;43284;47.042;15.498;2023-08-12T12:14:05;97566.28;;;26.17;53.37
57442;BME280;43284;47.042;15.498;2023-08-12T12:16:43;97570.19;;;26.30;52.60
57442;BME280;43284;47.042;15.498;2023-08-12T12:19:22;97565.00;;;26.45;52.27
57442;BME280;43284;47.042;15.498;2023-08-12T12:21:52;97559.22;;;26.66;50.63
57442;BME280;43284;47.042;15.498;2023-08-12T12:24:19;97562.41;;;26.70;48.63
57442;BME280;43284;47.042;15.498;2023-08-12T12:26:47;97562.59;;;26.77;48.64
57442;BME280;43284;47.042;15.498;2023-08-12T12:29:13;97557.53;;;26.65;45.67
57442;BME280;43284;47.042;15.498;2023-08-12T12:31:40;97556.38;;;26.68;48.02
57442;BME280;43284;47.042;15.498;2023-08-12T12:34:06;97560.06;;;26.83;50.01
57442;BME280;43284;47.042;15.498;2023-08-12T12:36:36;97558.53;;;26.89;50.70
57442;BME280;43284;47.042;15.498;2023-08-12T12:39:03;97548.47;;;26.99;50.21
57442;BME280;43284;47.042;15.498;2023-08-12T12:41:29;97542.59;;;27.12;50.27
57442;BME280;43284;47.042;15.498;2023-08-12T12:43:55;97545.81;;;27.24;49.54
57442;BME280;43284;47.042;15.498;2023-08-12T12:46:20;97543.41;;;27.37;48.90
57442;BME280;43284;47.042;15.498;2023-08-12T12:48:46;97537.22;;;27.37;47.65
57442;BME280;43284;47.042;15.498;2023-08-12T12:51:12;97536.69;;;27.41;48.28
57442;BME280;43284;47.042;15.498;2023-08-12T12:53:38;97537.38;;;27.43;47.92